sensor_id;sensor_type;location;lat;lon;timestamp;temperature;humidity
14016;DHT22;7083;48.854;9.158;2023-05-02T00:00:49;7.90;99.90
14016;DHT22;7083;48.854;9.158;2023-05-02T00:03:16;7.90;99.90
14016;DHT22;7083;48.854;9.158;2023-05-02T00:05:43;7.90;99.90
14016;DHT22;7083;48.854;9.158;2023-05-02T00:08:10;7.90;99.90
14016;DHT22;7083;48.854;9.158;2023-05-02T00:10:38;7.80;99.90
14016;DHT22;7083;48.854;9.158;2023-05-02T00:13:05;7.70;99.90
14016;DHT22;7083;48.854;9.158;2023-05-02T00:15:32;7.70;99.90
14016;DHT22;7083;48.854;9.158;2023-05-02T00:17:58;7.70;99.90
14016;DHT22;7083;48.854;9.158;2023-05-02T00:20:25;7.60;99.90
14016;DHT22;7083;48.854;9.158;2023-05-02T00:22:52;7.70;99.90
14016;DHT22;7083;48.854;9.158;2023-05-02T00:25:20;7.60;99.90
14016;DHT22;7083;48.854;9.158;2023-05-02T00:27:48;7.60;99.90
14016;DHT22;7083;48.854;9.158;2023-05-02T00:30:15;7.70;99.90
14016;DHT22;7083;48.854;9.158;2023-05-02T00:32:42;7.70;99.90
14016;DHT22;7083;48.854;9.158;2023-05-02T00:35:09;7.70;99.90
14016;DHT22;7083;48.854;9.158;2023-05-02T00:37:36;7.70;99.90
14016;DHT22;7083;48.854;9.158;2023-05-02T00:40:04;7.80;99.90
14016;DHT22;7083;48.854;9.158;2023-05-02T00:42:32;7.80;99.90
14016;DHT22;7083;48.854;9.158;2023-05-02T00:45:02;7.80;99.90
14016;DHT22;7083;48.854;9.158;2023-05-02T00:47:30;9.00;99.90
14016;DHT22;7083;48.854;9.158;2023-05-02T00:49:57;7.90;99.90
14016;DHT22;7083;48.854;9.158;2023-05-02T00:52:25;7.90;99.90
14016;DHT22;7083;48.854;9.158;2023-05-02T00:54:52;8.00;99.90
14016;DHT22;7083;48.854;9.158;2023-05-02T00:57:19;8.00;99.90
14016;DHT22;7083;48.854;9.158;2023-05-02T00:59:46;8.10;99.90
14016;DHT22;7083;48.854;9.158;2023-05-02T01:02:24;8.20;99.90
14016;DHT22;7083;48.854;9.158;2023-05-02T01:05:01;8.20;99.90
14016;DHT22;7083;48.854;9.158;2023-05-02T01:07:50;8.20;99.90
14016;DHT22;7083;48.854;9.158;2023-05-02T01:10:29;8.20;99.90
14016;DHT22;7083;48.854;9.158;2023-05-02T01:13:00;8.30;99.90
14016;DHT22;7083;48.854;9.158;2023-05-02T01:15:30;8.20;99.90
14016;DHT22;7083;48.854;9.158;2023-05-02T01:18:00;8.20;99.90
14016;DHT22;7083;48.854;9.158;2023-05-02T01:20:29;8.20;99.90
14016;DHT22;7083;48.854;9.158;2023-05-02T01:23:04;8.00;99.90
14016;DHT22;7083;48.854;9.158;2023-05-02T01:25:39;8.10;99.90
14016;DHT22;7083;48.854;9.158;2023-05-02T01:28:15;8.20;99.90
14016;DHT22;7083;48.854;9.158;2023-05-02T01:30:49;8.00;99.90
14016;DHT22;7083;48.854;9.158;2023-05-02T01:33:17;8.00;99.90
14016;DHT22;7083;48.854;9.158;2023-05-02T01:35:46;7.90;99.90
14016;DHT22;7083;48.854;9.158;2023-05-02T01:38:16;7.90;99.90
14016;DHT22;7083;48.854;9.158;2023-05-02T01:40:44;7.90;99.90
14016;DHT22;7083;48.854;9.158;2023-05-02T01:43:13;7.90;99.90
14016;DHT22;7083;48.854;9.158;2023-05-02T01:45:44;7.90;99.90
14016;DHT22;7083;48.854;9.158;2023-05-02T01:48:14;7.90;99.90
14016;DHT22;7083;48.854;9.158;2023-05-02T01:50:43;7.80;99.90
14016;DHT22;7083;48.854;9.158;2023-05-02T01:53:12;7.80;99.90
14016;DHT22;7083;48.854;9.158;2023-05-02T01:55:42;7.80;99.90
14016;DHT22;7083;48.854;9.158;2023-05-02T01:58:10;7.70;99.90
14016;DHT22;7083;48.854;9.158;2023-05-02T02:00:38;7.70;99.90
14016;DHT22;7083;48.854;9.158;2023-05-02T02:03:06;7.70;99.90
14016;DHT22;7083;48.854;9.158;2023-05-02T02:05:38;8.60;99.90
14016;DHT22;7083;48.854;9.158;2023-05-02T02:08:07;7.60;99.90
14016;DHT22;7083;48.854;9.158;2023-05-02T02:10:36;7.50;99.90
14016;DHT22;7083;48.854;9.158;2023-05-02T02:13:15;7.50;99.90
14016;DHT22;7083;48.854;9.158;2023-05-02T02:15:45;7.50;99.90
14016;DHT22;7083;48.854;9.158;2023-05-02T02:18:18;7.40;99.90
14016;DHT22;7083;48.854;9.158;2023-05-02T02:20:49;7.40;99.90
14016;DHT22;7083;48.854;9.158;2023-05-02T02:23:18;7.30;99.90
14016;DHT22;7083;48.854;9.158;2023-05-02T02:25:47;7.30;99.90
14016;DHT22;7083;48.854;9.158;2023-05-02T02:28:15;7.20;99.90
14016;DHT22;7083;48.854;9.158;2023-05-02T02:30:42;7.20;99.90
14016;DHT22;7083;48.854;9.158;2023-05-02T02:33:09;7.40;99.90
14016;DHT22;7083;48.854;9.158;2023-05-02T02:35:41;7.10;99.90
14016;DHT22;7083;48.854;9.158;2023-05-02T02:38:16;7.10;99.90
14016;DHT22;7083;48.854;9.158;2023-05-02T02:40:48;7.00;99.90
14016;DHT22;7083;48.854;9.158;2023-05-02T02:43:25;8.20;99.90
14016;DHT22;7083;48.854;9.158;2023-05-02T02:45:59;6.60;99.90
14016;DHT22;7083;48.854;9.158;2023-05-02T02:48:36;6.80;99.90
14016;DHT22;7083;48.854;9.158;2023-05-02T02:51:08;6.80;99.90
14016;DHT22;7083;48.854;9.158;2023-05-02T02:53:46;6.80;99.90
14016;DHT22;7083;48.854;9.158;2023-05-02T02:56:25;6.80;99.90
14016;DHT22;7083;48.854;9.158;2023-05-02T02:58:56;6.80;99.90
14016;DHT22;7083;48.854;9.158;2023-05-02T03:01:26;6.90;99.90
14016;DHT22;7083;48.854;9.158;2023-05-02T03:03:54;6.90;99.90
14016;DHT22;7083;48.854;9.158;2023-05-02T03:06:23;6.90;99.90
14016;DHT22;7083;48.854;9.158;2023-05-02T03:08:51;7.00;99.90
14016;DHT22;7083;48.854;9.158;2023-05-02T03:11:18;7.00;99.90
14016;DHT22;7083;48.854;9.158;2023-05-02T03:13:45;7.00;99.90
14016;DHT22;7083;48.854;9.158;2023-05-02T03:16:33;7.00;99.90
14016;DHT22;7083;48.854;9.158;2023-05-02T03:19:01;7.00;99.90
14016;DHT22;7083;48.854;9.158;2023-05-02T03:21:28;7.00;99.90
14016;DHT22;7083;48.854;9.158;2023-05-02T03:23:57;7.00;99.90
14016;DHT22;7083;48.854;9.158;2023-05-02T03:26:24;7.00;99.90
14016;DHT22;7083;48.854;9.158;2023-05-02T03:28:51;7.00;99.90
14016;DHT22;7083;48.854;9.158;2023-05-02T03:31:18;6.90;99.90
14016;DHT22;7083;48.854;9.158;2023-05-02T03:33:44;6.90;99.90
14016;DHT22;7083;48.854;9.158;2023-05-02T03:36:11;6.90;99.90
14016;DHT22;7083;48.854;9.158;2023-05-02T03:38:38;7.00;99.90
14016;DHT22;7083;48.854;9.158;2023-05-02T03:41:06;7.10;99.90
14016;DHT22;7083;48.854;9.158;2023-05-02T03:43:33;7.00;99.90
14016;DHT22;7083;48.854;9.158;2023-05-02T03:46:04;7.90;99.90
14016;DHT22;7083;48.854;9.158;2023-05-02T03:48:32;7.40;99.90
14016;DHT22;7083;48.854;9.158;2023-05-02T03:51:03;7.40;99.90
14016;DHT22;7083;48.854;9.158;2023-05-02T03:53:30;7.30;99.90
14016;DHT22;7083;48.854;9.158;2023-05-02T03:55:57;7.40;99.90
14016;DHT22;7083;48.854;9.158;2023-05-02T03:58:25;7.40;99.90
14016;DHT22;7083;48.854;9.158;2023-05-02T04:00:52;8.60;99.90
14016;DHT22;7083;48.854;9.158;2023-05-02T04:03:20;7.40;99.90
14016;DHT22;7083;48.854;9.158;2023-05-02T04:05:47;7.50;99.90
14016;DHT22;7083;48.854;9.158;2023-05-02T04:08:15;7.50;99.90
14016;DHT22;7083;48.854;9.158;2023-05-02T04:10:42;7.70;99.90
14016;DHT22;7083;48.854;9.158;2023-05-02T04:13:09;7.90;99.90
14016;DHT22;7083;48.854;9.158;2023-05-02T04:15:37;7.80;99.90
14016;DHT22;7083;48.854;9.158;2023-05-02T04:18:04;7.90;99.90
14016;DHT22;7083;48.854;9.158;2023-05-02T04:20:31;7.90;99.90
14016;DHT22;7083;48.854;9.158;2023-05-02T04:22:58;8.00;99.90
14016;DHT22;7083;48.854;9.158;2023-05-02T04:25:26;8.10;99.90
14016;DHT22;7083;48.854;9.158;2023-05-02T04:27:52;10.20;99.90
14016;DHT22;7083;48.854;9.158;2023-05-02T04:30:19;7.90;99.90
14016;DHT22;7083;48.854;9.158;2023-05-02T04:32:50;8.40;99.90
14016;DHT22;7083;48.854;9.158;2023-05-02T04:35:18;7.90;99.90
14016;DHT22;7083;48.854;9.158;2023-05-02T04:37:45;8.40;99.90
14016;DHT22;7083;48.854;9.158;2023-05-02T04:40:20;8.60;99.90
14016;DHT22;7083;48.854;9.158;2023-05-02T04:42:50;9.60;99.90
14016;DHT22;7083;48.854;9.158;2023-05-02T04:45:27;8.40;99.90
14016;DHT22;7083;48.854;9.158;2023-05-02T04:48:22;8.60;99.90
14016;DHT22;7083;48.854;9.158;2023-05-02T05:00:38;8.80;99.90
14016;DHT22;7083;48.854;9.158;2023-05-02T05:06:43;9.20;99.90
14016;DHT22;7083;48.854;9.158;2023-05-02T05:09:14;9.00;99.90
14016;DHT22;7083;48.854;9.158;2023-05-02T05:11:52;9.30;99.90
14016;DHT22;7083;48.854;9.158;2023-05-02T05:14:26;9.10;99.90
14016;DHT22;7083;48.854;9.158;2023-05-02T05:16:53;9.30;99.90
14016;DHT22;7083;48.854;9.158;2023-05-02T05:19:25;8.70;99.90
14016;DHT22;7083;48.854;9.158;2023-05-02T05:22:07;10.10;99.90
14016;DHT22;7083;48.854;9.158;2023-05-02T05:24:34;10.30;99.90
14016;DHT22;7083;48.854;9.158;2023-05-02T05:27:05;11.20;99.90
14016;DHT22;7083;48.854;9.158;2023-05-02T05:29:41;9.10;99.90
14016;DHT22;7083;48.854;9.158;2023-05-02T05:32:08;9.60;99.90
14016;DHT22;7083;48.854;9.158;2023-05-02T05:34:35;9.50;99.90
14016;DHT22;7083;48.854;9.158;2023-05-02T05:37:20;9.20;99.90
14016;DHT22;7083;48.854;9.158;2023-05-02T05:39:55;11.60;99.90
14016;DHT22;7083;48.854;9.158;2023-05-02T05:42:24;9.60;99.90
14016;DHT22;7083;48.854;9.158;2023-05-02T05:44:51;9.70;99.90
14016;DHT22;7083;48.854;9.158;2023-05-02T05:47:18;9.30;99.90
14016;DHT22;7083;48.854;9.158;2023-05-02T05:49:46;10.40;99.90
14016;DHT22;7083;48.854;9.158;2023-05-02T05:52:12;9.40;99.90
14016;DHT22;7083;48.854;9.158;2023-05-02T05:54:41;9.50;99.90
14016;DHT22;7083;48.854;9.158;2023-05-02T05:57:07;10.50;99.90
14016;DHT22;7083;48.854;9.158;2023-05-02T05:59:34;9.70;99.90
14016;DHT22;7083;48.854;9.158;2023-05-02T06:02:01;10.50;99.90
14016;DHT22;7083;48.854;9.158;2023-05-02T06:04:28;9.90;99.90
14016;DHT22;7083;48.854;9.158;2023-05-02T06:06:55;10.00;99.90
14016;DHT22;7083;48.854;9.158;2023-05-02T06:09:21;10.00;99.90
14016;DHT22;7083;48.854;9.158;2023-05-02T06:11:49;10.70;99.90
14016;DHT22;7083;48.854;9.158;2023-05-02T06:14:16;10.10;99.90
14016;DHT22;7083;48.854;9.158;2023-05-02T06:16:43;10.10;99.90
14016;DHT22;7083;48.854;9.158;2023-05-02T06:19:09;10.10;99.90
14016;DHT22;7083;48.854;9.158;2023-05-02T06:21:36;10.10;99.90
14016;DHT22;7083;48.854;9.158;2023-05-02T06:24:03;10.20;99.90
14016;DHT22;7083;48.854;9.158;2023-05-02T06:26:30;10.20;99.90
14016;DHT22;7083;48.854;9.158;2023-05-02T06:28:58;10.20;99.90
14016;DHT22;7083;48.854;9.158;2023-05-02T06:31:25;10.20;99.90
14016;DHT22;7083;48.854;9.158;2023-05-02T06:33:52;10.20;99.90
14016;DHT22;7083;48.854;9.158;2023-05-02T06:36:18;10.30;99.90
14016;DHT22;7083;48.854;9.158;2023-05-02T06:38:45;10.30;99.90
14016;DHT22;7083;48.854;9.158;2023-05-02T06:41:13;10.30;99.90
14016;DHT22;7083;48.854;9.158;2023-05-02T06:43:40;11.50;99.90
14016;DHT22;7083;48.854;9.158;2023-05-02T06:46:08;10.30;99.90
14016;DHT22;7083;48.854;9.158;2023-05-02T06:48:35;10.30;99.90
14016;DHT22;7083;48.854;9.158;2023-05-02T06:51:01;10.30;99.90
14016;DHT22;7083;48.854;9.158;2023-05-02T06:53:28;10.30;99.90
14016;DHT22;7083;48.854;9.158;2023-05-02T06:55:55;10.30;99.90
14016;DHT22;7083;48.854;9.158;2023-05-02T06:58:23;10.30;99.90
14016;DHT22;7083;48.854;9.158;2023-05-02T07:00:50;10.40;99.90
14016;DHT22;7083;48.854;9.158;2023-05-02T07:03:18;10.40;99.90
14016;DHT22;7083;48.854;9.158;2023-05-02T07:05:45;10.40;99.90
14016;DHT22;7083;48.854;9.158;2023-05-02T07:08:11;10.50;99.90
14016;DHT22;7083;48.854;9.158;2023-05-02T07:10:38;10.50;99.90
14016;DHT22;7083;48.854;9.158;2023-05-02T07:13:05;10.50;99.90
14016;DHT22;7083;48.854;9.158;2023-05-02T07:15:31;10.40;99.90
14016;DHT22;7083;48.854;9.158;2023-05-02T07:17:58;10.40;99.90
14016;DHT22;7083;48.854;9.158;2023-05-02T07:20:26;10.40;99.90
14016;DHT22;7083;48.854;9.158;2023-05-02T07:22:53;10.40;99.90
14016;DHT22;7083;48.854;9.158;2023-05-02T07:25:20;10.40;99.90
14016;DHT22;7083;48.854;9.158;2023-05-02T07:27:47;10.40;99.90
14016;DHT22;7083;48.854;9.158;2023-05-02T07:30:13;10.50;99.90
14016;DHT22;7083;48.854;9.158;2023-05-02T07:32:40;10.50;99.90
14016;DHT22;7083;48.854;9.158;2023-05-02T07:35:07;10.50;99.90
14016;DHT22;7083;48.854;9.158;2023-05-02T07:37:36;10.60;99.90
14016;DHT22;7083;48.854;9.158;2023-05-02T07:40:03;10.70;99.90
14016;DHT22;7083;48.854;9.158;2023-05-02T07:42:30;10.80;99.90
14016;DHT22;7083;48.854;9.158;2023-05-02T07:44:57;10.90;99.90
14016;DHT22;7083;48.854;9.158;2023-05-02T07:47:24;11.00;99.90
14016;DHT22;7083;48.854;9.158;2023-05-02T07:49:51;11.00;99.90
14016;DHT22;7083;48.854;9.158;2023-05-02T07:52:18;11.10;99.90
14016;DHT22;7083;48.854;9.158;2023-05-02T07:54:47;11.20;99.90
14016;DHT22;7083;48.854;9.158;2023-05-02T07:57:13;11.20;99.90
14016;DHT22;7083;48.854;9.158;2023-05-02T07:59:40;11.30;99.90
14016;DHT22;7083;48.854;9.158;2023-05-02T08:02:07;11.30;99.90
14016;DHT22;7083;48.854;9.158;2023-05-02T08:04:33;11.40;99.90
14016;DHT22;7083;48.854;9.158;2023-05-02T08:07:00;11.60;99.90
14016;DHT22;7083;48.854;9.158;2023-05-02T08:09:27;11.60;99.90
14016;DHT22;7083;48.854;9.158;2023-05-02T08:11:55;11.70;99.90
14016;DHT22;7083;48.854;9.158;2023-05-02T08:14:22;11.70;99.90
14016;DHT22;7083;48.854;9.158;2023-05-02T08:16:49;11.60;99.90
14016;DHT22;7083;48.854;9.158;2023-05-02T08:19:15;11.60;99.90
14016;DHT22;7083;48.854;9.158;2023-05-02T08:21:42;11.60;99.90
14016;DHT22;7083;48.854;9.158;2023-05-02T08:24:09;11.60;99.90
14016;DHT22;7083;48.854;9.158;2023-05-02T08:26:35;11.70;99.90
14016;DHT22;7083;48.854;9.158;2023-05-02T08:29:03;11.80;99.90
14016;DHT22;7083;48.854;9.158;2023-05-02T08:31:30;11.90;99.90
14016;DHT22;7083;48.854;9.158;2023-05-02T08:33:57;12.00;99.90
14016;DHT22;7083;48.854;9.158;2023-05-02T08:36:24;12.10;99.90
14016;DHT22;7083;48.854;9.158;2023-05-02T08:38:53;12.20;99.90
14016;DHT22;7083;48.854;9.158;2023-05-02T08:41:20;12.30;99.90
14016;DHT22;7083;48.854;9.158;2023-05-02T08:43:47;12.30;99.90
14016;DHT22;7083;48.854;9.158;2023-05-02T08:46:16;12.30;99.90
14016;DHT22;7083;48.854;9.158;2023-05-02T08:48:44;12.30;99.90
14016;DHT22;7083;48.854;9.158;2023-05-02T08:51:13;12.30;99.90
14016;DHT22;7083;48.854;9.158;2023-05-02T08:53:41;12.40;99.90
14016;DHT22;7083;48.854;9.158;2023-05-02T08:56:09;12.50;99.90
14016;DHT22;7083;48.854;9.158;2023-05-02T08:58:36;12.60;99.90
14016;DHT22;7083;48.854;9.158;2023-05-02T09:01:09;12.60;99.90
14016;DHT22;7083;48.854;9.158;2023-05-02T09:03:37;12.70;99.90
14016;DHT22;7083;48.854;9.158;2023-05-02T09:06:05;12.70;99.90
14016;DHT22;7083;48.854;9.158;2023-05-02T09:08:33;12.80;99.90
14016;DHT22;7083;48.854;9.158;2023-05-02T09:11:00;12.80;99.90
14016;DHT22;7083;48.854;9.158;2023-05-02T09:13:29;12.90;99.90
14016;DHT22;7083;48.854;9.158;2023-05-02T09:15:57;12.90;99.90
14016;DHT22;7083;48.854;9.158;2023-05-02T09:18:27;12.90;99.90
14016;DHT22;7083;48.854;9.158;2023-05-02T09:20:57;12.90;99.90
14016;DHT22;7083;48.854;9.158;2023-05-02T09:23:32;12.90;99.90
14016;DHT22;7083;48.854;9.158;2023-05-02T09:25:59;12.80;99.90
14016;DHT22;7083;48.854;9.158;2023-05-02T09:28:38;12.60;99.90
14016;DHT22;7083;48.854;9.158;2023-05-02T09:31:07;12.60;99.90
14016;DHT22;7083;48.854;9.158;2023-05-02T09:33:34;12.70;99.90
14016;DHT22;7083;48.854;9.158;2023-05-02T09:36:03;12.90;99.90
14016;DHT22;7083;48.854;9.158;2023-05-02T09:38:31;13.10;99.90
14016;DHT22;7083;48.854;9.158;2023-05-02T09:40:58;13.10;99.90
14016;DHT22;7083;48.854;9.158;2023-05-02T09:43:28;13.00;99.90
14016;DHT22;7083;48.854;9.158;2023-05-02T09:45:59;13.00;99.90
14016;DHT22;7083;48.854;9.158;2023-05-02T09:48:26;13.00;99.90
14016;DHT22;7083;48.854;9.158;2023-05-02T09:50:54;13.20;99.90
14016;DHT22;7083;48.854;9.158;2023-05-02T09:53:23;13.40;99.90
14016;DHT22;7083;48.854;9.158;2023-05-02T09:55:59;13.50;99.90
14016;DHT22;7083;48.854;9.158;2023-05-02T09:58:26;13.40;99.90
14016;DHT22;7083;48.854;9.158;2023-05-02T10:00:55;13.20;99.90
14016;DHT22;7083;48.854;9.158;2023-05-02T10:03:23;13.00;99.90
14016;DHT22;7083;48.854;9.158;2023-05-02T10:05:50;13.00;99.90
14016;DHT22;7083;48.854;9.158;2023-05-02T10:08:19;13.10;99.90
14016;DHT22;7083;48.854;9.158;2023-05-02T10:10:51;13.10;99.90
14016;DHT22;7083;48.854;9.158;2023-05-02T10:13:19;13.10;99.90
14016;DHT22;7083;48.854;9.158;2023-05-02T10:15:49;13.10;99.90
14016;DHT22;7083;48.854;9.158;2023-05-02T10:18:24;13.10;99.90
14016;DHT22;7083;48.854;9.158;2023-05-02T10:20:55;13.10;99.90
14016;DHT22;7083;48.854;9.158;2023-05-02T10:23:25;13.20;99.90
14016;DHT22;7083;48.854;9.158;2023-05-02T10:25:53;13.20;99.90
14016;DHT22;7083;48.854;9.158;2023-05-02T10:28:20;13.30;99.90
14016;DHT22;7083;48.854;9.158;2023-05-02T10:30:48;13.40;99.90
14016;DHT22;7083;48.854;9.158;2023-05-02T10:33:16;13.50;99.90
14016;DHT22;7083;48.854;9.158;2023-05-02T10:35:44;13.80;99.90
14016;DHT22;7083;48.854;9.158;2023-05-02T10:38:13;14.10;99.90
14016;DHT22;7083;48.854;9.158;2023-05-02T10:40:41;14.30;99.90
14016;DHT22;7083;48.854;9.158;2023-05-02T10:43:14;14.30;99.90
14016;DHT22;7083;48.854;9.158;2023-05-02T10:45:41;14.50;99.90
14016;DHT22;7083;48.854;9.158;2023-05-02T10:48:15;14.80;99.90
14016;DHT22;7083;48.854;9.158;2023-05-02T10:50:46;14.90;99.90
14016;DHT22;7083;48.854;9.158;2023-05-02T10:53:30;15.00;99.90
14016;DHT22;7083;48.854;9.158;2023-05-02T10:56:08;15.00;99.90
14016;DHT22;7083;48.854;9.158;2023-05-02T10:58:37;15.00;99.90
14016;DHT22;7083;48.854;9.158;2023-05-02T11:01:35;14.90;99.90
14016;DHT22;7083;48.854;9.158;2023-05-02T11:04:08;14.80;99.90
14016;DHT22;7083;48.854;9.158;2023-05-02T11:06:35;14.90;99.90
14016;DHT22;7083;48.854;9.158;2023-05-02T11:09:31;15.00;99.90
14016;DHT22;7083;48.854;9.158;2023-05-02T11:12:02;15.30;99.90
14016;DHT22;7083;48.854;9.158;2023-05-02T11:14:44;15.40;99.90
14016;DHT22;7083;48.854;9.158;2023-05-02T11:17:12;15.60;99.90
14016;DHT22;7083;48.854;9.158;2023-05-02T11:22:53;15.90;99.90
14016;DHT22;7083;48.854;9.158;2023-05-02T11:25:34;15.80;99.90
14016;DHT22;7083;48.854;9.158;2023-05-02T11:28:03;15.80;99.90
14016;DHT22;7083;48.854;9.158;2023-05-02T11:30:39;15.90;99.90
14016;DHT22;7083;48.854;9.158;2023-05-02T11:33:18;16.20;99.90
14016;DHT22;7083;48.854;9.158;2023-05-02T11:35:46;16.20;99.90
14016;DHT22;7083;48.854;9.158;2023-05-02T11:38:18;16.20;99.40
14016;DHT22;7083;48.854;9.158;2023-05-02T11:40:53;16.10;98.90
14016;DHT22;7083;48.854;9.158;2023-05-02T11:43:21;16.20;99.90
14016;DHT22;7083;48.854;9.158;2023-05-02T11:45:51;16.40;99.50
14016;DHT22;7083;48.854;9.158;2023-05-02T11:48:19;16.60;96.70
14016;DHT22;7083;48.854;9.158;2023-05-02T11:50:48;16.70;96.20
14016;DHT22;7083;48.854;9.158;2023-05-02T11:53:17;16.90;95.10
14016;DHT22;7083;48.854;9.158;2023-05-02T11:55:45;17.10;92.70
14016;DHT22;7083;48.854;9.158;2023-05-02T11:58:14;17.30;92.10
14016;DHT22;7083;48.854;9.158;2023-05-02T12:00:41;17.80;92.70
14016;DHT22;7083;48.854;9.158;2023-05-02T12:03:23;18.00;90.40
14016;DHT22;7083;48.854;9.158;2023-05-02T12:05:50;17.90;90.60
14016;DHT22;7083;48.854;9.158;2023-05-02T12:08:19;17.70;91.70
14016;DHT22;7083;48.854;9.158;2023-05-02T12:10:47;17.40;91.70
14016;DHT22;7083;48.854;9.158;2023-05-02T12:13:16;17.10;92.10
14016;DHT22;7083;48.854;9.158;2023-05-02T12:15:43;16.90;92.10
14016;DHT22;7083;48.854;9.158;2023-05-02T12:18:10;16.70;92.90
14016;DHT22;7083;48.854;9.158;2023-05-02T12:20:39;16.60;94.20
14016;DHT22;7083;48.854;9.158;2023-05-02T12:23:06;16.50;95.80
14016;DHT22;7083;48.854;9.158;2023-05-02T12:25:37;16.50;97.00
14016;DHT22;7083;48.854;9.158;2023-05-02T12:28:04;16.70;97.10
14016;DHT22;7083;48.854;9.158;2023-05-02T12:30:31;16.80;97.00
14016;DHT22;7083;48.854;9.158;2023-05-02T12:32:59;17.00;96.60
14016;DHT22;7083;48.854;9.158;2023-05-02T12:35:27;17.60;95.80
14016;DHT22;7083;48.854;9.158;2023-05-02T12:38:07;17.50;95.10
14016;DHT22;7083;48.854;9.158;2023-05-02T12:40:34;18.20;91.90
14016;DHT22;7083;48.854;9.158;2023-05-02T12:43:02;18.80;90.60
14016;DHT22;7083;48.854;9.158;2023-05-02T12:45:31;19.30;88.10
14016;DHT22;7083;48.854;9.158;2023-05-02T12:47:59;19.90;88.60
14016;DHT22;7083;48.854;9.158;2023-05-02T12:50:36;20.00;86.00
14016;DHT22;7083;48.854;9.158;2023-05-02T12:53:04;19.90;84.60
14016;DHT22;7083;48.854;9.158;2023-05-02T12:55:32;19.80;84.30
14016;DHT22;7083;48.854;9.158;2023-05-02T12:58:00;20.00;86.80
14016;DHT22;7083;48.854;9.158;2023-05-02T13:00:26;20.30;85.60
14016;DHT22;7083;48.854;9.158;2023-05-02T13:02:53;20.60;78.80
14016;DHT22;7083;48.854;9.158;2023-05-02T13:05:20;20.40;81.50
14016;DHT22;7083;48.854;9.158;2023-05-02T13:07:47;20.30;81.30
14016;DHT22;7083;48.854;9.158;2023-05-02T13:10:15;20.80;82.60
14016;DHT22;7083;48.854;9.158;2023-05-02T13:12:42;21.90;77.90
14016;DHT22;7083;48.854;9.158;2023-05-02T13:15:10;23.00;78.50
14016;DHT22;7083;48.854;9.158;2023-05-02T13:17:36;24.20;71.50
14016;DHT22;7083;48.854;9.158;2023-05-02T13:20:04;25.50;67.70
14016;DHT22;7083;48.854;9.158;2023-05-02T13:22:31;26.70;65.00
14016;DHT22;7083;48.854;9.158;2023-05-02T13:24:57;27.50;57.60
14016;DHT22;7083;48.854;9.158;2023-05-02T13:27:25;28.00;59.00
14016;DHT22;7083;48.854;9.158;2023-05-02T13:29:52;27.80;58.00
14016;DHT22;7083;48.854;9.158;2023-05-02T13:32:19;26.60;58.40
14016;DHT22;7083;48.854;9.158;2023-05-02T13:34:46;25.70;58.30
14016;DHT22;7083;48.854;9.158;2023-05-02T13:37:13;24.70;62.90
14016;DHT22;7083;48.854;9.158;2023-05-02T13:39:39;24.90;63.00
14016;DHT22;7083;48.854;9.158;2023-05-02T13:42:06;25.80;61.30
14016;DHT22;7083;48.854;9.158;2023-05-02T13:44:34;27.10;62.90
14016;DHT22;7083;48.854;9.158;2023-05-02T13:47:01;28.70;54.90
14016;DHT22;7083;48.854;9.158;2023-05-02T13:49:28;29.30;56.50
14016;DHT22;7083;48.854;9.158;2023-05-02T13:51:55;30.20;57.20
14016;DHT22;7083;48.854;9.158;2023-05-02T13:54:22;30.90;54.90
14016;DHT22;7083;48.854;9.158;2023-05-02T13:56:48;32.00;50.40
14016;DHT22;7083;48.854;9.158;2023-05-02T13:59:15;32.40;47.80
14016;DHT22;7083;48.854;9.158;2023-05-02T14:01:43;32.20;48.40
14016;DHT22;7083;48.854;9.158;2023-05-02T14:04:10;31.60;46.80
14016;DHT22;7083;48.854;9.158;2023-05-02T14:06:37;31.40;49.20
14016;DHT22;7083;48.854;9.158;2023-05-02T14:09:03;31.90;47.20
14016;DHT22;7083;48.854;9.158;2023-05-02T14:11:31;32.00;46.50
14016;DHT22;7083;48.854;9.158;2023-05-02T14:13:58;31.70;48.00
14016;DHT22;7083;48.854;9.158;2023-05-02T14:16:25;31.10;48.40
14016;DHT22;7083;48.854;9.158;2023-05-02T14:18:53;31.50;46.90
14016;DHT22;7083;48.854;9.158;2023-05-02T14:21:20;31.70;47.00
14016;DHT22;7083;48.854;9.158;2023-05-02T14:23:46;31.80;49.60
14016;DHT22;7083;48.854;9.158;2023-05-02T14:26:13;32.10;48.70
14016;DHT22;7083;48.854;9.158;2023-05-02T14:55:41;32.50;47.00
14016;DHT22;7083;48.854;9.158;2023-05-02T14:58:08;32.50;47.10
14016;DHT22;7083;48.854;9.158;2023-05-02T15:00:35;32.00;50.60
14016;DHT22;7083;48.854;9.158;2023-05-02T15:03:02;32.70;46.30
14016;DHT22;7083;48.854;9.158;2023-05-02T15:05:29;33.80;43.20
14016;DHT22;7083;48.854;9.158;2023-05-02T15:07:56;34.20;43.20
14016;DHT22;7083;48.854;9.158;2023-05-02T15:10:24;34.00;45.80
14016;DHT22;7083;48.854;9.158;2023-05-02T15:12:51;34.40;44.90
14016;DHT22;7083;48.854;9.158;2023-05-02T15:15:18;34.60;45.00
14016;DHT22;7083;48.854;9.158;2023-05-02T15:17:49;34.90;45.40
14016;DHT22;7083;48.854;9.158;2023-05-02T15:20:16;34.50;44.60
14016;DHT22;7083;48.854;9.158;2023-05-02T15:22:42;34.60;43.80
14016;DHT22;7083;48.854;9.158;2023-05-02T15:25:09;34.80;45.30
14016;DHT22;7083;48.854;9.158;2023-05-02T15:27:37;35.20;42.90
14016;DHT22;7083;48.854;9.158;2023-05-02T15:30:04;35.40;43.40
14016;DHT22;7083;48.854;9.158;2023-05-02T15:32:32;36.10;39.80
14016;DHT22;7083;48.854;9.158;2023-05-02T15:34:58;35.40;43.30
14016;DHT22;7083;48.854;9.158;2023-05-02T15:37:25;35.30;42.80
14016;DHT22;7083;48.854;9.158;2023-05-02T15:39:52;35.40;42.70
14016;DHT22;7083;48.854;9.158;2023-05-02T15:42:18;35.90;41.00
14016;DHT22;7083;48.854;9.158;2023-05-02T15:44:46;36.10;40.30
14016;DHT22;7083;48.854;9.158;2023-05-02T15:47:13;35.70;43.30
14016;DHT22;7083;48.854;9.158;2023-05-02T15:49:39;35.40;42.20
14016;DHT22;7083;48.854;9.158;2023-05-02T15:52:06;35.50;40.40
14016;DHT22;7083;48.854;9.158;2023-05-02T15:54:33;35.60;42.10
14016;DHT22;7083;48.854;9.158;2023-05-02T15:57:00;35.20;41.80
14016;DHT22;7083;48.854;9.158;2023-05-02T15:59:26;35.00;42.90
14016;DHT22;7083;48.854;9.158;2023-05-02T16:01:54;35.10;42.80
14016;DHT22;7083;48.854;9.158;2023-05-02T16:04:21;35.20;41.20
14016;DHT22;7083;48.854;9.158;2023-05-02T16:06:49;35.30;41.50
14016;DHT22;7083;48.854;9.158;2023-05-02T16:09:16;35.30;42.00
14016;DHT22;7083;48.854;9.158;2023-05-02T16:11:43;35.80;40.10
14016;DHT22;7083;48.854;9.158;2023-05-02T16:14:09;35.60;41.40
14016;DHT22;7083;48.854;9.158;2023-05-02T16:16:36;35.30;42.40
14016;DHT22;7083;48.854;9.158;2023-05-02T16:19:04;35.60;39.90
14016;DHT22;7083;48.854;9.158;2023-05-02T16:21:39;35.80;38.10
14016;DHT22;7083;48.854;9.158;2023-05-02T16:24:06;35.80;39.20
14016;DHT22;7083;48.854;9.158;2023-05-02T16:26:33;35.70;39.50
14016;DHT22;7083;48.854;9.158;2023-05-02T16:29:00;35.30;38.60
14016;DHT22;7083;48.854;9.158;2023-05-02T16:31:26;34.90;41.20
14016;DHT22;7083;48.854;9.158;2023-05-02T16:33:53;33.70;41.00
14016;DHT22;7083;48.854;9.158;2023-05-02T16:36:21;32.40;41.30
14016;DHT22;7083;48.854;9.158;2023-05-02T16:38:49;30.60;43.00
14016;DHT22;7083;48.854;9.158;2023-05-02T16:41:15;28.60;47.20
14016;DHT22;7083;48.854;9.158;2023-05-02T16:43:42;27.00;49.40
14016;DHT22;7083;48.854;9.158;2023-05-02T16:46:09;25.50;54.20